Time;durP1;ratioP1;P1;durP2;ratioP2;P2;SDS_P1;SDS_P2;PMS_P1;PMS_P2;Temp;Humidity;BMP_temperature;BMP_pressure;BME280_temperature;BME280_humidity;BME280_pressure;Samples;Min_cycle;Max_cycle;Signal;HPM_P1;HPM_P2
2023/06/29 00:00:08;;;;;;;;;;;;;;;21.40;58.56;100179.34;5058478;28;4808;-75
2023/06/29 00:02:35;;;;;;;;;;;;;;;21.39;58.56;100169.50;5059460;28;4749;-77
2023/06/29 00:05:01;;;;;;;;;;;;;;;21.38;58.35;100170.59;5057543;28;4732;-75
2023/06/29 00:07:33;;;;;;;;;;;;;;;21.37;58.43;100177.22;5060332;28;4881;-75
2023/06/29 00:10:00;;;;;;;;;;;;;;;21.37;58.33;100179.13;5042816;28;5252;-76
2023/06/29 00:12:26;;;;;;;;;;;;;;;21.36;58.56;100178.34;5043183;28;4738;-75
2023/06/29 00:14:53;;;;;;;;;;;;;;;21.34;58.37;100166.81;5041292;28;5368;-75
2023/06/29 00:17:20;;;;;;;;;;;;;;;21.35;58.12;100170.38;5043643;28;4657;-76
2023/06/29 00:19:47;;;;;;;;;;;;;;;21.34;58.23;100166.81;5043208;28;4582;-75
2023/06/29 00:22:14;;;;;;;;;;;;;;;21.32;58.38;100166.31;5044758;28;4640;-76
2023/06/29 00:24:43;;;;;;;;;;;;;;;21.31;58.24;100157.28;5043339;28;5307;-77
2023/06/29 00:27:09;;;;;;;;;;;;;;;21.31;58.13;100156.47;5044355;28;5437;-77
2023/06/29 00:29:37;;;;;;;;;;;;;;;21.31;58.24;100157.28;5041924;28;4806;-76
2023/06/29 00:32:03;;;;;;;;;;;;;;;21.31;58.19;100159.22;5041869;28;4723;-78
2023/06/29 00:34:30;;;;;;;;;;;;;;;21.29;58.01;100158.69;5043924;28;4531;-77
2023/06/29 00:36:56;;;;;;;;;;;;;;;21.29;58.15;100170.44;5043307;28;4845;-76
2023/06/29 00:39:23;;;;;;;;;;;;;;;21.28;58.31;100157.88;5043576;28;4763;-75
2023/06/29 00:41:49;;;;;;;;;;;;;;;21.28;58.17;100160.63;5058176;28;5337;-76
2023/06/29 00:44:16;;;;;;;;;;;;;;;21.27;58.28;100160.94;5042245;28;5346;-76
2023/06/29 00:46:42;;;;;;;;;;;;;;;21.26;58.05;100159.28;5057938;28;5116;-75
2023/06/29 00:49:10;;;;;;;;;;;;;;;21.26;58.26;100153.81;5055872;28;4899;-77
2023/06/29 00:51:37;;;;;;;;;;;;;;;21.26;58.28;100162.03;5040509;28;5407;-77
2023/06/29 00:54:03;;;;;;;;;;;;;;;21.24;57.99;100151.38;5042161;28;4769;-76
2023/06/29 00:56:30;;;;;;;;;;;;;;;21.24;58.25;100154.13;5048434;28;5117;-75
2023/06/29 00:58:56;;;;;;;;;;;;;;;21.23;58.15;100154.41;5039089;28;5389;-76
2023/06/29 01:01:23;;;;;;;;;;;;;;;21.22;57.89;100158.28;5043964;28;4731;-76
2023/06/29 01:03:49;;;;;;;;;;;;;;;21.22;58.22;100159.09;5056688;28;4813;-75
2023/06/29 01:06:16;;;;;;;;;;;;;;;21.20;58.19;100155.81;5042525;28;4913;-76
2023/06/29 01:08:44;;;;;;;;;;;;;;;21.19;57.96;100146.00;5039757;28;4715;-76
2023/06/29 01:11:10;;;;;;;;;;;;;;;21.20;57.80;100141.31;5056905;28;4799;-77
2023/06/29 01:13:37;;;;;;;;;;;;;;;21.18;57.99;100138.91;5041966;28;5366;-75
2023/06/29 01:16:04;;;;;;;;;;;;;;;21.18;57.86;100135.34;5054549;28;5337;-74
2023/06/29 01:18:30;;;;;;;;;;;;;;;21.17;57.78;100134.53;5041586;28;5513;-76
2023/06/29 01:20:57;;;;;;;;;;;;;;;21.17;58.01;100130.97;5040917;28;4782;-74
2023/06/29 01:23:24;;;;;;;;;;;;;;;21.16;58.00;100132.91;5041028;28;5359;-77
2023/06/29 01:25:51;;;;;;;;;;;;;;;21.14;57.84;100126.09;5039360;28;4833;-78
2023/06/29 01:28:18;;;;;;;;;;;;;;;21.13;57.83;100128.03;5039834;28;4967;-78
2023/06/29 01:30:49;;;;;;;;;;;;;;;21.12;58.10;100126.41;5042277;28;4788;-77
2023/06/29 01:33:16;;;;;;;;;;;;;;;21.10;57.83;100129.44;5043261;28;4795;-78
2023/06/29 01:35:42;;;;;;;;;;;;;;;21.09;57.72;100137.97;5062202;28;4684;-79
2023/06/29 01:38:09;;;;;;;;;;;;;;;21.08;58.03;100139.88;5043742;28;4583;-74
2023/06/29 01:40:36;;;;;;;;;;;;;;;21.08;57.94;100136.31;5047472;28;4723;-77
2023/06/29 01:43:02;;;;;;;;;;;;;;;21.07;57.99;100137.44;5060159;28;4640;-75
2023/06/29 01:45:29;;;;;;;;;;;;;;;21.06;58.04;100133.91;5061083;28;4773;-76
2023/06/29 01:47:55;;;;;;;;;;;;;;;21.05;57.85;100134.19;5059739;28;4750;-76
2023/06/29 01:50:22;;;;;;;;;;;;;;;21.04;58.09;100133.38;5047488;28;5392;-77
2023/06/29 01:52:48;;;;;;;;;;;;;;;21.04;57.69;100132.56;5043517;28;4692;-77
2023/06/29 01:55:15;;;;;;;;;;;;;;;21.03;57.93;100131.75;5062626;28;4850;-77
2023/06/29 01:57:41;;;;;;;;;;;;;;;21.02;57.83;100132.06;5076827;28;4702;-76
2023/06/29 02:00:08;;;;;;;;;;;;;;;21.00;57.97;100129.63;5044775;28;5323;-77
2023/06/29 02:02:35;;;;;;;;;;;;;;;21.00;57.77;100131.53;5045333;28;4778;-77
2023/06/29 02:05:01;;;;;;;;;;;;;;;21.00;57.90;100126.06;5043443;28;4629;-78
2023/06/29 02:07:28;;;;;;;;;;;;;;;20.98;57.89;100131.84;5043194;28;5379;-75
2023/06/29 02:09:54;;;;;;;;;;;;;;;20.97;58.07;100130.22;5061683;28;5262;-75
2023/06/29 02:12:21;;;;;;;;;;;;;;;20.96;57.88;100123.09;5079239;28;5904;-75
2023/06/29 02:14:48;;;;;;;;;;;;;;;20.97;58.02;100116.53;5041844;28;5304;-78
2023/06/29 02:17:14;;;;;;;;;;;;;;;20.95;57.92;100107.00;5060973;28;4787;-77
2023/06/29 02:19:41;;;;;;;;;;;;;;;20.94;57.92;100100.72;5044384;28;5320;-77
2023/06/29 02:22:07;;;;;;;;;;;;;;;20.94;58.02;100103.47;5045947;28;5167;-76
2023/06/29 02:24:34;;;;;;;;;;;;;;;20.93;57.80;100101.00;5043283;28;4711;-75
2023/06/29 02:27:01;;;;;;;;;;;;;;;20.92;57.70;100091.19;5043290;28;5244;-77
2023/06/29 02:29:27;;;;;;;;;;;;;;;20.91;57.83;100098.56;5043537;28;4710;-77
2023/06/29 02:31:54;;;;;;;;;;;;;;;20.91;57.78;100109.50;5060301;28;5465;-76
2023/06/29 02:34:20;;;;;;;;;;;;;;;20.91;57.59;100105.97;5045466;28;4636;-76
2023/06/29 02:36:47;;;;;;;;;;;;;;;20.89;57.79;100094.53;5043153;28;5393;-74
2023/06/29 02:39:13;;;;;;;;;;;;;;;20.89;57.65;100091.78;5060546;28;5391;-77
2023/06/29 02:41:40;;;;;;;;;;;;;;;20.88;57.63;100096.41;5060232;28;5478;-77
2023/06/29 02:44:07;;;;;;;;;;;;;;;20.87;57.47;100092.06;5044876;28;4695;-77
2023/06/29 02:46:33;;;;;;;;;;;;;;;20.87;57.87;100095.59;5043614;28;5266;-77
2023/06/29 02:49:00;;;;;;;;;;;;;;;20.86;57.62;100091.25;5060594;28;4732;-76
2023/06/29 02:51:26;;;;;;;;;;;;;;;20.86;57.70;100090.44;5041995;28;4708;-78
2023/06/29 02:53:53;;;;;;;;;;;;;;;20.85;57.59;100102.50;5044623;28;4784;-75
2023/06/29 02:56:19;;;;;;;;;;;;;;;20.85;57.73;100099.75;5059821;28;4848;-76
2023/06/29 02:58:46;;;;;;;;;;;;;;;20.84;57.65;100096.22;5040170;28;5303;-77
2023/06/29 03:01:12;;;;;;;;;;;;;;;20.83;57.80;100093.78;5046043;28;5383;-76
2023/06/29 03:03:39;;;;;;;;;;;;;;;20.82;57.55;100098.44;5057849;28;4757;-76
2023/06/29 03:06:05;;;;;;;;;;;;;;;20.82;57.65;100116.78;5044321;28;5465;-75
2023/06/29 03:08:32;;;;;;;;;;;;;;;20.81;57.56;100110.50;5056892;28;5323;-75
2023/06/29 03:10:59;;;;;;;;;;;;;;;20.79;57.51;100100.94;5046047;28;4933;-76
2023/06/29 03:13:25;;;;;;;;;;;;;;;20.80;57.57;100108.06;5042385;28;4728;-76
2023/06/29 03:15:52;;;;;;;;;;;;;;;20.78;57.63;100100.16;5045810;28;5374;-76
2023/06/29 03:18:18;;;;;;;;;;;;;;;20.79;57.71;100106.44;5057732;28;4641;-79
2023/06/29 03:20:45;;;;;;;;;;;;;;;20.77;57.56;100104.00;5041866;28;4770;-76
2023/06/29 03:23:11;;;;;;;;;;;;;;;20.76;57.48;100102.34;5043516;28;5324;-77
2023/06/29 03:25:38;;;;;;;;;;;;;;;20.76;57.52;100107.03;5041881;28;4923;-76
2023/06/29 03:28:04;;;;;;;;;;;;;;;20.76;57.47;100104.28;5058929;28;4732;-76
2023/06/29 03:30:31;;;;;;;;;;;;;;;20.75;57.50;100103.47;5041742;28;5288;-78
2023/06/29 03:32:59;;;;;;;;;;;;;;;20.74;57.41;100098.31;5059637;28;4896;-76
2023/06/29 03:35:26;;;;;;;;;;;;;;;20.73;57.63;100100.22;5041610;28;5450;-75
2023/06/29 03:37:52;;;;;;;;;;;;;;;20.72;57.26;100103.28;5058900;28;4759;-76
2023/06/29 03:40:19;;;;;;;;;;;;;;;20.72;57.60;100103.28;5043542;28;5460;-76
2023/06/29 03:42:45;;;;;;;;;;;;;;;20.71;57.46;100105.19;5057485;28;4846;-76
2023/06/29 03:45:12;;;;;;;;;;;;;;;20.73;57.41;100118.56;5043516;28;4726;-77
2023/06/29 03:47:38;;;;;;;;;;;;;;;20.70;57.29;100119.97;5042164;28;4789;-75
2023/06/29 03:50:05;;;;;;;;;;;;;;;20.70;57.29;100111.75;5044473;28;4616;-76
2023/06/29 03:52:32;;;;;;;;;;;;;;;20.69;57.59;100110.16;5039012;28;5370;-77
2023/06/29 03:54:58;;;;;;;;;;;;;;;20.68;57.25;100103.06;5043077;28;4719;-77
2023/06/29 03:57:25;;;;;;;;;;;;;;;20.66;57.27;100091.59;5043019;28;5534;-78
2023/06/29 03:59:51;;;;;;;;;;;;;;;20.66;57.47;100086.13;5044353;28;4608;-77
2023/06/29 04:02:18;;;;;;;;;;;;;;;20.66;57.37;100079.84;5041932;28;5329;-77
2023/06/29 04:04:45;;;;;;;;;;;;;;;20.64;57.49;100080.94;5058893;28;5521;-78
2023/06/29 04:07:13;;;;;;;;;;;;;;;20.64;57.25;100080.13;5041856;28;4660;-76
2023/06/29 04:09:39;;;;;;;;;;;;;;;20.62;57.57;100080.44;5041979;28;5227;-76
2023/06/29 04:12:06;;;;;;;;;;;;;;;20.63;57.23;100079.31;5041999;28;5371;-77
2023/06/29 04:14:33;;;;;;;;;;;;;;;20.62;57.46;100080.44;5041727;28;5311;-78
2023/06/29 04:17:07;;;;;;;;;;;;;;;20.62;57.23;100094.13;5075072;28;4764;-77
2023/06/29 04:19:36;;;;;;;;;;;;;;;20.62;57.07;100093.31;5055668;28;4691;-77
2023/06/29 04:22:02;;;;;;;;;;;;;;;20.60;57.24;100090.84;5056110;28;4728;-76
2023/06/29 04:24:29;;;;;;;;;;;;;;;20.59;57.14;100102.91;5044074;28;4783;-79
2023/06/29 04:26:55;;;;;;;;;;;;;;;20.61;57.34;100102.59;5040177;28;5655;-75
2023/06/29 04:29:22;;;;;;;;;;;;;;;20.59;57.29;100100.19;5043460;28;4693;-78
2023/06/29 04:31:48;;;;;;;;;;;;;;;20.58;57.20;100100.47;5056921;28;5349;-76
2023/06/29 04:34:17;;;;;;;;;;;;;;;20.57;57.21;100102.41;5042681;28;4794;-77
2023/06/29 04:36:46;;;;;;;;;;;;;;;20.58;57.43;100108.66;5040843;28;5204;-78
2023/06/29 04:39:12;;;;;;;;;;;;;;;20.56;57.09;100103.50;5040713;28;5300;-75
2023/06/29 04:41:40;;;;;;;;;;;;;;;20.57;57.12;100104.31;5057358;28;4836;-78
2023/06/29 04:44:08;;;;;;;;;;;;;;;20.56;57.12;100105.41;5041247;28;5118;-76
2023/06/29 04:46:34;;;;;;;;;;;;;;;20.55;57.09;100112.81;5042867;28;4607;-77
2023/06/29 04:49:05;;;;;;;;;;;;;;;20.55;57.20;100101.06;5057323;28;5246;-77
2023/06/29 04:51:31;;;;;;;;;;;;;;;20.53;57.26;100101.38;5042944;28;5177;-77
2023/06/29 04:53:58;;;;;;;;;;;;;;;20.54;57.18;100099.44;5040789;28;4624;-77
2023/06/29 04:56:24;;;;;;;;;;;;;;;20.52;56.99;100094.25;5043374;28;5021;-76
2023/06/29 04:58:51;;;;;;;;;;;;;;;20.52;57.23;100083.31;5056326;28;5329;-78
2023/06/29 05:01:17;;;;;;;;;;;;;;;20.52;56.99;100093.41;5040745;28;4893;-76
2023/06/29 05:03:44;;;;;;;;;;;;;;;20.52;56.90;100085.22;5044495;28;4637;-77
2023/06/29 05:06:10;;;;;;;;;;;;;;;20.51;57.22;100092.63;5042471;28;5063;-77
2023/06/29 05:08:37;;;;;;;;;;;;;;;20.51;56.98;100086.34;5045090;28;4754;-77
2023/06/29 05:11:03;;;;;;;;;;;;;;;20.51;56.99;100097.28;5045405;28;4701;-77
2023/06/29 05:13:32;;;;;;;;;;;;;;;20.50;56.81;100084.69;5060769;28;4575;-77
2023/06/29 05:16:00;;;;;;;;;;;;;;;20.50;56.94;100079.22;5062040;28;4621;-76
2023/06/29 05:18:26;;;;;;;;;;;;;;;20.49;56.82;100083.06;5044969;28;4746;-77
2023/06/29 05:20:53;;;;;;;;;;;;;;;20.49;56.94;100077.59;5047996;28;4672;-77
2023/06/29 05:23:19;;;;;;;;;;;;;;;20.49;56.92;100085.81;5043852;28;5465;-77
2023/06/29 05:25:46;;;;;;;;;;;;;;;20.48;56.90;100079.53;5047619;28;4652;-77
2023/06/29 05:28:12;;;;;;;;;;;;;;;20.47;56.97;100083.38;5044734;28;5455;-77
2023/06/29 05:30:39;;;;;;;;;;;;;;;20.47;57.03;100079.81;5044855;28;4624;-76
2023/06/29 05:33:05;;;;;;;;;;;;;;;20.46;56.88;100084.47;5037129;28;5200;-76
2023/06/29 05:35:34;;;;;;;;;;;;;;;20.46;56.86;100081.75;5066232;28;4080;-75
2023/06/29 05:38:00;;;;;;;;;;;;;;;20.46;57.06;100087.22;5041621;28;4770;-76
2023/06/29 05:40:27;;;;;;;;;;;;;;;20.46;56.97;100076.28;5049228;28;4625;-76
2023/06/29 05:42:53;;;;;;;;;;;;;;;20.47;56.82;100082.56;5055808;28;2024;-75
2023/06/29 05:45:20;;;;;;;;;;;;;;;20.46;56.80;100075.47;5044064;28;4977;-76
2023/06/29 05:47:47;;;;;;;;;;;;;;;20.46;56.94;100075.47;5051810;28;4309;-75
2023/06/29 05:50:13;;;;;;;;;;;;;;;20.46;56.78;100078.19;5069454;28;3242;-76
2023/06/29 05:52:40;;;;;;;;;;;;;;;20.46;56.70;100081.75;5066900;28;2081;-77
2023/06/29 05:55:06;;;;;;;;;;;;;;;20.47;56.63;100079.81;5052600;28;2200;-76
2023/06/29 05:57:33;;;;;;;;;;;;;;;20.46;56.85;100076.28;5046396;28;4574;-77
2023/06/29 06:00:04;;;;;;;;;;;;;;;20.45;56.56;100076.59;5051825;28;3803;-76
2023/06/29 06:02:31;;;;;;;;;;;;;;;20.46;56.92;100080.94;5067652;28;2246;-75
2023/06/29 06:04:57;;;;;;;;;;;;;;;20.45;56.64;100071.91;5043597;28;5337;-75
2023/06/29 06:07:24;;;;;;;;;;;;;;;20.45;56.50;100071.13;5061548;28;4761;-76
2023/06/29 06:09:50;;;;;;;;;;;;;;;20.45;56.48;100074.66;5046229;28;5290;-78
2023/06/29 06:12:17;;;;;;;;;;;;;;;20.45;56.64;100076.59;5045462;28;4827;-73
2023/06/29 06:14:43;;;;;;;;;;;;;;;20.44;56.78;100070.28;5059645;28;4793;-75
2023/06/29 06:17:10;;;;;;;;;;;;;;;20.44;56.50;100067.53;5056262;28;4596;-78
2023/06/29 06:19:36;;;;;;;;;;;;;;;20.43;56.49;100068.66;5046885;28;5532;-77
2023/06/29 06:22:03;;;;;;;;;;;;;;;20.42;56.64;100064.31;5061169;28;5442;-78
2023/06/29 06:24:29;;;;;;;;;;;;;;;20.44;56.76;100059.34;5044442;28;5308;-78
2023/06/29 06:26:57;;;;;;;;;;;;;;;20.45;56.75;100063.72;5046417;28;5433;-78
2023/06/29 06:29:23;;;;;;;;;;;;;;;20.42;56.43;100056.91;5043381;28;5315;-78
2023/06/29 06:31:50;;;;;;;;;;;;;;;20.42;56.77;100056.91;5045010;28;4766;-78
2023/06/29 06:34:16;;;;;;;;;;;;;;;20.43;56.52;100069.47;5045812;28;4743;-78
2023/06/29 06:36:43;;;;;;;;;;;;;;;20.45;56.60;100062.91;5046836;28;5254;-78
2023/06/29 06:39:10;;;;;;;;;;;;;;;20.42;56.32;100059.66;5059781;28;5442;-76
2023/06/29 06:41:36;;;;;;;;;;;;;;;20.44;56.48;100059.34;5045846;28;4646;-76
2023/06/29 06:44:03;;;;;;;;;;;;;;;20.44;56.44;100056.59;5060695;28;5293;-76
2023/06/29 06:46:29;;;;;;;;;;;;;;;20.43;56.58;100072.19;5044499;28;4543;-79
2023/06/29 06:48:56;;;;;;;;;;;;;;;20.28;62.26;100077.09;5077123;28;4674;-78
2023/06/29 06:51:22;;;;;;;;;;;;;;;20.41;61.91;100074.44;5058257;28;4784;-77
2023/06/29 06:53:49;;;;;;;;;;;;;;;20.38;58.69;100069.56;5045810;28;4660;-77
2023/06/29 06:56:15;;;;;;;;;;;;;;;20.40;58.00;100069.25;5059762;28;5471;-77
2023/06/29 06:58:42;;;;;;;;;;;;;;;20.41;57.67;100082.66;5059181;28;4797;-77
2023/06/29 07:01:09;;;;;;;;;;;;;;;20.42;57.46;100081.53;5040806;28;5071;-77
2023/06/29 07:03:35;;;;;;;;;;;;;;;20.43;57.48;100080.41;5046729;28;5254;-77
2023/06/29 07:06:02;;;;;;;;;;;;;;;20.43;57.34;100074.94;5059639;28;4559;-76
2023/06/29 07:08:28;;;;;;;;;;;;;;;20.45;57.36;100082.06;5043468;28;5282;-76
2023/06/29 07:10:55;;;;;;;;;;;;;;;20.44;57.14;100078.47;5059100;28;5129;-76
2023/06/29 07:13:22;;;;;;;;;;;;;;;20.43;57.10;100077.66;5044604;28;4729;-78
2023/06/29 07:15:48;;;;;;;;;;;;;;;20.43;57.09;100080.41;5039432;28;5559;-78
2023/06/29 07:18:15;;;;;;;;;;;;;;;20.45;57.17;100074.66;5058882;28;5397;-78
2023/06/29 07:20:42;;;;;;;;;;;;;;;20.42;57.12;100075.25;5061688;28;5576;-77
2023/06/29 07:23:10;;;;;;;;;;;;;;;20.45;57.30;100076.59;5042360;28;5241;-77
2023/06/29 07:25:36;;;;;;;;;;;;;;;20.46;57.28;100076.28;5043609;28;5296;-77
2023/06/29 07:28:03;;;;;;;;;;;;;;;20.48;57.00;100076.00;5044445;28;5302;-76
2023/06/29 07:30:29;;;;;;;;;;;;;;;20.46;56.93;100081.75;5043237;28;5490;-77
2023/06/29 07:32:56;;;;;;;;;;;;;;;20.45;56.78;100082.84;5043413;28;5151;-77
2023/06/29 07:35:22;;;;;;;;;;;;;;;20.45;56.80;100071.91;5041315;28;4742;-76
2023/06/29 07:37:49;;;;;;;;;;;;;;;20.46;56.90;100076.28;5043682;28;5324;-77
2023/06/29 07:40:15;;;;;;;;;;;;;;;20.46;56.72;100070.81;5059414;28;4774;-75
2023/06/29 07:42:42;;;;;;;;;;;;;;;20.48;56.68;100067.78;5041884;28;4727;-76
2023/06/29 07:45:09;;;;;;;;;;;;;;;20.47;56.80;100068.88;5041634;28;4761;-78
2023/06/29 07:47:35;;;;;;;;;;;;;;;20.47;56.60;100069.72;5060112;28;4602;-77
2023/06/29 07:50:02;;;;;;;;;;;;;;;20.47;56.80;100069.72;5043020;28;5431;-76
2023/06/29 07:52:30;;;;;;;;;;;;;;;20.48;56.63;100070.53;5044106;28;4708;-76
2023/06/29 07:54:57;;;;;;;;;;;;;;;20.49;56.54;100067.47;5042378;28;5505;-77
2023/06/29 07:57:23;;;;;;;;;;;;;;;20.47;56.56;100063.41;5059578;28;5306;-77
2023/06/29 07:59:50;;;;;;;;;;;;;;;20.48;56.63;100056.84;5042511;28;5511;-78
2023/06/29 08:02:17;;;;;;;;;;;;;;;20.48;56.66;100067.78;5044349;28;4734;-76
2023/06/29 08:04:43;;;;;;;;;;;;;;;20.47;56.81;100063.41;5035451;28;4575;-76
2023/06/29 08:07:11;;;;;;;;;;;;;;;20.47;56.65;100074.34;5074849;28;5374;-76
2023/06/29 08:09:38;;;;;;;;;;;;;;;20.47;56.90;100077.91;5043982;28;5594;-78
2023/06/29 08:12:05;;;;;;;;;;;;;;;20.48;56.49;100073.25;5057158;28;4652;-76
2023/06/29 08:14:34;;;;;;;;;;;;;;;20.47;56.59;100069.72;5045068;28;4652;-76
2023/06/29 08:17:00;;;;;;;;;;;;;;;20.48;56.78;100076.78;5038432;28;4653;-75
2023/06/29 08:19:27;;;;;;;;;;;;;;;20.47;56.60;100069.72;5036802;28;5479;-75
2023/06/29 08:21:55;;;;;;;;;;;;;;;20.48;56.75;100065.03;5044592;28;4841;-74
2023/06/29 08:24:21;;;;;;;;;;;;;;;20.47;56.59;100069.72;5056914;28;4898;-78
2023/06/29 08:26:48;;;;;;;;;;;;;;;20.45;56.51;100060.97;5059240;28;4714;-76
2023/06/29 08:29:15;;;;;;;;;;;;;;;20.45;56.63;100066.44;5056019;28;4840;-78
2023/06/29 08:31:41;;;;;;;;;;;;;;;20.46;56.63;100059.06;5043954;28;5215;-78
2023/06/29 08:34:08;;;;;;;;;;;;;;;20.43;56.67;100061.25;5042360;28;4816;-76
2023/06/29 08:36:36;;;;;;;;;;;;;;;20.42;56.68;100058.84;5043204;28;5225;-77
2023/06/29 08:39:03;;;;;;;;;;;;;;;20.43;56.62;100064.00;5074994;28;5370;-76
2023/06/29 08:41:33;;;;;;;;;;;;;;;20.42;56.71;100065.13;5042336;28;5382;-75
2023/06/29 08:44:01;;;;;;;;;;;;;;;20.43;56.74;100054.97;5059434;28;4576;-76
2023/06/29 08:46:31;;;;;;;;;;;;;;;20.42;56.54;100054.19;5037239;28;4706;-76
2023/06/29 08:48:58;;;;;;;;;;;;;;;20.41;56.66;100051.72;5038675;28;4684;-77
2023/06/29 08:51:24;;;;;;;;;;;;;;;20.42;57.00;100047.91;5042090;28;4704;-77
2023/06/29 08:53:51;;;;;;;;;;;;;;;20.43;56.64;100049.50;5041706;28;5400;-77
2023/06/29 08:56:18;;;;;;;;;;;;;;;20.43;56.56;100046.78;5043239;28;4808;-76
2023/06/29 08:58:44;;;;;;;;;;;;;;;20.42;56.72;100045.97;5041464;28;4778;-77
2023/06/29 09:01:11;;;;;;;;;;;;;;;20.42;57.00;100040.50;5057582;28;4935;-76
2023/06/29 09:03:38;;;;;;;;;;;;;;;20.43;56.72;100035.84;5036844;28;5414;-76
2023/06/29 09:06:04;;;;;;;;;;;;;;;20.43;56.63;100025.72;5043567;28;5283;-78
2023/06/29 09:08:31;;;;;;;;;;;;;;;20.42;56.65;100026.81;5041873;28;5204;-76
2023/06/29 09:10:57;;;;;;;;;;;;;;;20.42;57.00;100018.63;5041458;28;5329;-76
2023/06/29 09:13:24;;;;;;;;;;;;;;;20.41;56.65;100025.22;5042473;28;4790;-78
2023/06/29 09:15:50;;;;;;;;;;;;;;;20.42;56.80;100026.81;5057257;28;5244;-75
2023/06/29 09:18:17;;;;;;;;;;;;;;;20.42;56.93;100026.03;5042186;28;4606;-73
2023/06/29 09:20:44;;;;;;;;;;;;;;;20.40;56.89;100029.03;5042733;28;5400;-76
2023/06/29 09:23:10;;;;;;;;;;;;;;;20.42;56.80;100026.81;5039877;28;5271;-77
2023/06/29 09:25:37;;;;;;;;;;;;;;;20.41;56.85;100030.69;5039505;28;5546;-76
2023/06/29 09:28:03;;;;;;;;;;;;;;;20.42;56.80;100026.81;5042230;28;4966;-76
2023/06/29 09:30:30;;;;;;;;;;;;;;;20.43;56.66;100025.72;5042054;28;5515;-76
2023/06/29 09:32:56;;;;;;;;;;;;;;;20.45;56.69;100027.34;5042246;28;4611;-76
2023/06/29 09:35:23;;;;;;;;;;;;;;;20.45;56.72;100030.91;5045197;28;4772;-76
2023/06/29 09:37:50;;;;;;;;;;;;;;;20.45;56.62;100027.34;5041544;28;4812;-75
2023/06/29 09:40:16;;;;;;;;;;;;;;;20.46;56.95;100031.69;5041876;28;4732;-74
2023/06/29 09:42:43;;;;;;;;;;;;;;;20.45;56.85;100025.44;5056343;28;4777;-77
2023/06/29 09:45:12;;;;;;;;;;;;;;;20.45;56.70;100017.22;5042947;28;4843;-77
2023/06/29 09:47:38;;;;;;;;;;;;;;;20.45;56.94;100019.97;5040107;28;4724;-75
2023/06/29 09:50:05;;;;;;;;;;;;;;;20.44;57.00;100018.31;5037875;28;4664;-79
2023/06/29 09:52:32;;;;;;;;;;;;;;;20.47;56.77;100025.94;5076965;28;5133;-76
2023/06/29 09:54:58;;;;;;;;;;;;;;;20.46;57.04;100018.84;5044754;28;4534;-76
2023/06/29 09:57:26;;;;;;;;;;;;;;;20.47;56.68;100022.38;5064184;28;4712;-77
2023/06/29 09:59:52;;;;;;;;;;;;;;;20.47;56.66;100025.94;5053618;28;4849;-77
2023/06/29 10:02:19;;;;;;;;;;;;;;;20.49;56.75;100025.63;5062582;28;5783;-77
2023/06/29 10:04:45;;;;;;;;;;;;;;;20.49;56.65;100020.97;5044627;28;4939;-76
2023/06/29 10:07:12;;;;;;;;;;;;;;;20.49;56.67;100015.50;5045602;28;5436;-76
2023/06/29 10:09:38;;;;;;;;;;;;;;;20.50;57.03;100022.63;5046100;28;5332;-77
2023/06/29 10:12:05;;;;;;;;;;;;;;;20.49;56.82;100015.50;5044469;28;4647;-76
2023/06/29 10:14:32;;;;;;;;;;;;;;;20.50;56.71;100014.41;5061613;28;4732;-77
2023/06/29 10:16:58;;;;;;;;;;;;;;;20.51;56.83;100013.28;5041815;28;4644;-76
2023/06/29 10:19:25;;;;;;;;;;;;;;;20.51;57.02;100013.28;5048101;28;4741;-76
2023/06/29 10:21:52;;;;;;;;;;;;;;;20.52;56.67;100009.47;5059877;28;4821;-76
2023/06/29 10:24:19;;;;;;;;;;;;;;;20.52;56.80;100006.72;5044905;28;4733;-77
2023/06/29 10:26:47;;;;;;;;;;;;;;;20.54;56.69;100004.50;5077846;28;4809;-77
2023/06/29 10:29:14;;;;;;;;;;;;;;;20.54;56.65;100000.97;5045152;28;4811;-78
2023/06/29 10:31:40;;;;;;;;;;;;;;;20.54;56.80;100003.72;5057702;28;5233;-77
2023/06/29 10:34:07;;;;;;;;;;;;;;;20.55;56.88;99999.84;5062448;28;4635;-78
2023/06/29 10:36:33;;;;;;;;;;;;;;;20.57;56.71;99998.44;5046115;28;4711;-77
2023/06/29 10:39:00;;;;;;;;;;;;;;;20.56;56.83;99985.88;5046384;28;5375;-77
2023/06/29 10:41:27;;;;;;;;;;;;;;;20.56;57.05;99982.31;5044739;28;5419;-77
2023/06/29 10:43:53;;;;;;;;;;;;;;;20.58;56.70;99988.31;5045467;28;4640;-77
2023/06/29 10:46:21;;;;;;;;;;;;;;;20.59;56.83;99976.28;5059309;28;5307;-76
2023/06/29 10:48:47;;;;;;;;;;;;;;;20.59;56.78;99987.22;5045277;28;5392;-77
2023/06/29 10:51:14;;;;;;;;;;;;;;;20.59;56.87;99981.75;5045932;28;5204;-76
2023/06/29 10:53:41;;;;;;;;;;;;;;;20.60;56.91;99980.63;5059489;28;5680;-77
2023/06/29 10:56:07;;;;;;;;;;;;;;;20.60;57.10;99981.44;5047807;28;5474;-79
2023/06/29 10:58:34;;;;;;;;;;;;;;;20.61;56.96;99983.03;5056640;28;5343;-76
2023/06/29 11:01:00;;;;;;;;;;;;;;;20.61;57.03;99979.50;5044119;28;5351;-76
2023/06/29 11:03:27;;;;;;;;;;;;;;;20.61;57.02;99983.03;5055638;28;4703;-76
2023/06/29 11:05:54;;;;;;;;;;;;;;;20.63;57.03;99988.22;5042884;28;5487;-77
2023/06/29 11:08:20;;;;;;;;;;;;;;;20.63;57.06;99969.88;5045437;28;4653;-76
2023/06/29 11:10:47;;;;;;;;;;;;;;;20.62;57.04;99975.66;5057869;28;4700;-77
2023/06/29 11:13:14;;;;;;;;;;;;;;;20.63;56.96;99975.34;5061504;28;4669;-77
2023/06/29 11:15:43;;;;;;;;;;;;;;;20.64;57.03;99976.97;5057191;28;5402;-78
2023/06/29 11:18:10;;;;;;;;;;;;;;;20.66;56.93;99975.88;5046374;28;5287;-76
2023/06/29 11:20:36;;;;;;;;;;;;;;;20.66;57.28;99979.41;5043707;28;4648;-76
2023/06/29 11:23:03;;;;;;;;;;;;;;;20.67;57.10;99969.28;5046595;28;4938;-77
2023/06/29 11:25:30;;;;;;;;;;;;;;;20.67;57.01;99980.22;5076082;28;4840;-77
2023/06/29 11:27:56;;;;;;;;;;;;;;;20.69;57.00;99981.56;5043841;28;5328;-76
2023/06/29 11:30:23;;;;;;;;;;;;;;;20.70;57.20;99982.34;5074455;28;5295;-77
2023/06/29 11:32:49;;;;;;;;;;;;;;;20.70;57.20;99988.63;5060341;28;4911;-77
2023/06/29 11:35:16;;;;;;;;;;;;;;;20.70;57.29;99980.44;5044684;28;4715;-76
2023/06/29 11:37:42;;;;;;;;;;;;;;;20.70;57.13;99977.69;5040894;28;4819;-77
2023/06/29 11:40:09;;;;;;;;;;;;;;;20.71;57.15;99979.34;5059725;28;4887;-77
2023/06/29 11:42:36;;;;;;;;;;;;;;;20.72;57.31;99980.94;5042582;28;5337;-78
2023/06/29 11:45:03;;;;;;;;;;;;;;;20.74;57.20;99973.25;5054646;28;5317;-74
2023/06/29 11:47:29;;;;;;;;;;;;;;;20.74;57.44;99975.19;5074992;28;5434;-75
2023/06/29 11:49:57;;;;;;;;;;;;;;;20.74;57.33;99965.06;5043866;28;5245;-79
2023/06/29 11:52:24;;;;;;;;;;;;;;;20.75;57.49;99974.88;5043333;28;4637;-78
2023/06/29 11:54:50;;;;;;;;;;;;;;;20.76;57.49;99965.53;5043724;28;5462;-78
2023/06/29 11:57:17;;;;;;;;;;;;;;;20.76;57.73;99964.72;5046015;28;4597;-77
2023/06/29 11:59:44;;;;;;;;;;;;;;;20.78;57.45;99968.00;5041985;28;5385;-76
2023/06/29 12:02:10;;;;;;;;;;;;;;;20.79;57.80;99969.59;5043080;28;5502;-77
2023/06/29 12:04:37;;;;;;;;;;;;;;;20.78;57.55;99971.53;5045754;28;4574;-76
2023/06/29 12:07:03;;;;;;;;;;;;;;;20.79;57.92;99969.59;5057022;28;4692;-77
2023/06/29 12:09:30;;;;;;;;;;;;;;;20.79;57.68;99967.69;5043982;28;5500;-77
2023/06/29 12:11:57;;;;;;;;;;;;;;;20.80;57.68;99973.97;5042634;28;4796;-76
2023/06/29 12:14:24;;;;;;;;;;;;;;;20.81;57.93;99976.41;5058168;28;4780;-78
2023/06/29 12:16:50;;;;;;;;;;;;;;;20.82;57.88;99982.69;5053691;28;4809;-77
2023/06/29 12:19:17;;;;;;;;;;;;;;;20.82;57.83;99978.03;5060655;28;4867;-77
2023/06/29 12:21:43;;;;;;;;;;;;;;;20.83;57.85;99981.59;5056564;28;4936;-77
2023/06/29 12:24:10;;;;;;;;;;;;;;;20.83;57.73;99971.44;5045349;28;4867;-77
2023/06/29 12:26:36;;;;;;;;;;;;;;;20.85;58.13;99980.19;5043241;28;5173;-76
2023/06/29 12:29:03;;;;;;;;;;;;;;;20.85;58.01;99977.44;5042400;28;4788;-76
2023/06/29 12:31:29;;;;;;;;;;;;;;;20.85;57.85;99971.13;5043828;28;5430;-76
2023/06/29 12:33:56;;;;;;;;;;;;;;;20.87;57.81;99971.66;5041744;28;4924;-76
2023/06/29 12:36:22;;;;;;;;;;;;;;;20.88;57.90;99970.53;5044605;28;4968;-76
2023/06/29 12:38:49;;;;;;;;;;;;;;;20.88;58.21;99970.53;5041282;28;5738;-76
2023/06/29 12:41:16;;;;;;;;;;;;;;;20.89;58.07;99974.91;5039537;28;4823;-76
2023/06/29 12:43:43;;;;;;;;;;;;;;;20.89;58.13;99974.91;5041825;28;4479;-75